Time;durP1;ratioP1;P1;durP2;ratioP2;P2;SDS_P1;SDS_P2;PMS_P1;PMS_P2;Temp;Humidity;BMP_temperature;BMP_pressure;BME280_temperature;BME280_humidity;BME280_pressure;Samples;Min_cycle;Max_cycle;Signal;HPM_P1;HPM_P2
2023/07/07 00:00:29;;;;;;;10.95;2.75;;;;;;;;;;12989876;19;20353;-63
2023/07/07 00:05:07;;;;;;;4.60;2.25;;;;;;;;;;12987453;19;20014;-63
2023/07/07 00:09:25;;;;;;;5.43;2.03;;;;;;;;;;12988824;19;20029;-63
2023/07/07 00:13:43;;;;;;;4.82;2.45;;;;;;;;;;12988440;19;20352;-64
2023/07/07 00:18:00;;;;;;;;;;;;;;;;;;12987799;19;20010;-64
2023/07/07 00:22:18;;;;;;;;;;;;;;;;;;12988308;19;20243;-64
2023/07/07 00:26:36;;;;;;;3.22;2.00;;;;;;;;;;12986845;19;19918;-64
2023/07/07 00:30:54;;;;;;;3.00;1.90;;;;;;;;;;12987005;19;20315;-64
2023/07/07 00:35:11;;;;;;;;;;;;;;;;;;12988155;19;20039;-65
2023/07/07 00:39:32;;;;;;;6.07;2.05;;;;;;;;;;12987220;19;20015;-64
2023/07/07 00:44:02;;;;;;;;;;;;;;;;;;12988072;19;20026;-63
2023/07/07 00:48:29;;;;;;;3.45;1.80;;;;;;;;;;12985772;19;19922;-64
2023/07/07 00:52:47;;;;;;;3.38;1.83;;;;;;;;;;12986677;19;20395;-64
2023/07/07 00:57:05;;;;;;;2.75;1.75;;;;;;;;;;12986676;19;20014;-65
2023/07/07 01:01:23;;;;;;;3.40;1.70;;;;;;;;;;12985126;19;20025;-64
2023/07/07 01:05:44;;;;;;;5.10;1.42;;;;;;;;;;12986900;19;20007;-64
2023/07/07 01:10:02;;;;;;;3.22;1.75;;;;;;;;;;12985537;19;20017;-64
2023/07/07 01:14:25;;;;;;;2.95;2.10;;;;;;;;;;12984534;19;20015;-65
2023/07/07 01:18:59;;;;;;;3.70;1.77;;;;;;;;;;12983799;19;20592;-65
2023/07/07 01:23:57;;;;;;;4.57;2.08;;;;;;;;;;12985011;19;20492;-65
2023/07/07 01:28:41;;;;;;;2.03;1.48;;;;;;;;;;12982842;19;20014;-65
2023/07/07 01:33:08;;;;;;;5.45;1.67;;;;;;;;;;12982527;19;20011;-65
2023/07/07 01:37:26;;;;;;;2.97;1.60;;;;;;;;;;12982434;19;20587;-65
2023/07/07 01:41:59;;;;;;;3.10;1.48;;;;;;;;;;12983706;19;20059;-65
2023/07/07 01:46:35;;;;;;;2.50;1.35;;;;;;;;;;12983932;19;20014;-65
2023/07/07 01:50:54;;;;;;;4.25;1.40;;;;;;;;;;12984463;19;20018;-65
2023/07/07 01:55:25;;;;;;;5.15;1.27;;;;;;;;;;12982586;19;20481;-64
2023/07/07 01:59:44;;;;;;;6.32;1.70;;;;;;;;;;12981017;19;20014;-65
2023/07/07 02:04:02;;;;;;;3.25;1.48;;;;;;;;;;12981345;19;20043;-64
2023/07/07 02:08:21;;;;;;;3.10;1.77;;;;;;;;;;12981489;19;20746;-65
2023/07/07 02:12:39;;;;;;;;;;;;;;;;;;12982648;19;20010;-65
2023/07/07 02:16:56;;;;;;;3.33;1.42;;;;;;;;;;12981725;19;19927;-65
2023/07/07 02:21:18;;;;;;;2.42;1.60;;;;;;;;;;12980774;19;20014;-64
2023/07/07 02:25:36;;;;;;;2.35;1.10;;;;;;;;;;12981688;19;20006;-65
2023/07/07 02:29:53;;;;;;;;;;;;;;;;;;12982259;19;20019;-65
2023/07/07 02:34:11;;;;;;;3.45;1.70;;;;;;;;;;12980245;19;20383;-65
2023/07/07 02:38:29;;;;;;;;;;;;;;;;;;12982412;19;20022;-65
2023/07/07 02:42:46;;;;;;;4.22;2.10;;;;;;;;;;12982048;19;19911;-65
2023/07/07 02:47:05;;;;;;;1.92;1.52;;;;;;;;;;12980003;19;20007;-64
2023/07/07 02:51:23;;;;;;;3.70;1.52;;;;;;;;;;12978474;19;20018;-65
2023/07/07 02:55:45;;;;;;;2.85;1.50;;;;;;;;;;12979449;19;20018;-64
2023/07/07 03:00:08;;;;;;;8.52;1.52;;;;;;;;;;12979720;19;20304;-64
2023/07/07 03:04:26;;;;;;;5.30;1.70;;;;;;;;;;12980481;19;20057;-65
2023/07/07 03:08:44;;;;;;;1.85;1.30;;;;;;;;;;12961044;19;20021;-66
2023/07/07 03:13:02;;;;;;;;;;;;;;;;;;12978086;19;20027;-65
2023/07/07 03:17:20;;;;;;;;;;;;;;;;;;12983882;19;20005;-64
2023/07/07 03:21:38;;;;;;;;;;;;;;;;;;12981828;19;20018;-65
2023/07/07 03:25:56;;;;;;;;;;;;;;;;;;12986219;19;19927;-65
2023/07/07 03:30:14;;;;;;;2.30;1.52;;;;;;;;;;12986282;19;19923;-64
2023/07/07 03:34:32;;;;;;;4.00;1.95;;;;;;;;;;12986337;19;20027;-64
2023/07/07 03:38:50;;;;;;;6.43;1.67;;;;;;;;;;12985975;19;20039;-65
2023/07/07 03:43:08;;;;;;;3.15;1.45;;;;;;;;;;12985297;19;20110;-64
2023/07/07 03:47:26;;;;;;;4.10;1.83;;;;;;;;;;12985708;19;20014;-65
2023/07/07 03:51:43;;;;;;;2.90;1.63;;;;;;;;;;12985771;19;20117;-65
2023/07/07 03:56:01;;;;;;;3.05;1.90;;;;;;;;;;12984204;19;20108;-65
2023/07/07 04:00:19;;;;;;;3.42;1.58;;;;;;;;;;12984833;19;20687;-64
2023/07/07 04:04:37;;;;;;;4.57;1.60;;;;;;;;;;12983681;19;20018;-64
2023/07/07 04:08:55;;;;;;;4.30;1.65;;;;;;;;;;12984186;19;20014;-65
2023/07/07 04:13:13;;;;;;;;;;;;;;;;;;12984153;19;20041;-64
2023/07/07 04:17:30;;;;;;;2.42;1.50;;;;;;;;;;12984242;19;19923;-65
2023/07/07 04:21:48;;;;;;;4.25;1.80;;;;;;;;;;12984151;19;20030;-63
2023/07/07 04:26:09;;;;;;;2.65;1.95;;;;;;;;;;12981376;19;20554;-64
2023/07/07 04:30:26;;;;;;;6.95;2.00;;;;;;;;;;12983456;19;20010;-64
2023/07/07 04:34:44;;;;;;;;;;;;;;;;;;12984568;19;20006;-65
2023/07/07 04:39:03;;;;;;;2.22;1.60;;;;;;;;;;12982967;19;19923;-65
2023/07/07 04:43:21;;;;;;;13.25;2.67;;;;;;;;;;12983286;19;20010;-64
2023/07/07 04:47:38;;;;;;;3.67;2.17;;;;;;;;;;12982160;19;20649;-65
2023/07/07 04:51:56;;;;;;;6.90;2.40;;;;;;;;;;12981181;19;20022;-64
2023/07/07 04:56:19;;;;;;;;;;;;;;;;;;12981431;19;20746;-64
2023/07/07 05:00:37;;;;;;;4.22;2.38;;;;;;;;;;12982649;19;19919;-65
2023/07/07 05:04:54;;;;;;;3.05;2.05;;;;;;;;;;12981965;19;20428;-65
2023/07/07 05:09:14;;;;;;;;;;;;;;;;;;12980859;19;20023;-66
2023/07/07 05:13:31;;;;;;;8.55;2.38;;;;;;;;;;12982201;19;19919;-65
2023/07/07 05:17:51;;;;;;;3.80;2.50;;;;;;;;;;12981114;19;20046;-65
2023/07/07 05:22:09;;;;;;;4.72;2.25;;;;;;;;;;12980089;19;20031;-66
2023/07/07 05:26:27;;;;;;;5.13;2.42;;;;;;;;;;12979389;19;20612;-64
2023/07/07 05:30:46;;;;;;;5.00;2.67;;;;;;;;;;12979959;19;20906;-66
2023/07/07 05:35:05;;;;;;;6.72;2.90;;;;;;;;;;12977278;19;20010;-65
2023/07/07 05:39:22;;;;;;;5.28;2.65;;;;;;;;;;12979739;19;20010;-66
2023/07/07 05:43:40;;;;;;;;;;;;;;;;;;12979823;19;20120;-66
2023/07/07 05:47:58;;;;;;;;;;;;;;;;;;12978824;19;19914;-64
2023/07/07 05:52:16;;;;;;;7.47;2.70;;;;;;;;;;12977819;19;20339;-64
2023/07/07 05:56:33;;;;;;;7.18;3.05;;;;;;;;;;12978756;19;20343;-65
2023/07/07 06:00:51;;;;;;;5.60;2.85;;;;;;;;;;12977257;19;20010;-64
2023/07/07 06:05:09;;;;;;;4.93;2.47;;;;;;;;;;12977985;19;20427;-64
2023/07/07 06:09:27;;;;;;;5.95;2.88;;;;;;;;;;12977411;19;20089;-65
2023/07/07 06:13:44;;;;;;;4.07;2.40;;;;;;;;;;12977518;19;20611;-65
2023/07/07 06:18:02;;;;;;;4.22;2.45;;;;;;;;;;12976689;19;20010;-66
2023/07/07 06:22:20;;;;;;;;;;;;;;;;;;12978088;19;20014;-65
2023/07/07 06:26:38;;;;;;;4.22;2.33;;;;;;;;;;12960475;19;20026;-65
2023/07/07 06:30:55;;;;;;;5.80;2.65;;;;;;;;;;12976341;19;20014;-66
2023/07/07 06:35:14;;;;;;;5.13;2.75;;;;;;;;;;12976460;19;20030;-65
2023/07/07 06:39:31;;;;;;;4.80;2.90;;;;;;;;;;12976670;19;20142;-64
2023/07/07 06:43:50;;;;;;;;;;;;;;;;;;12977321;19;20022;-65
2023/07/07 06:48:07;;;;;;;7.40;2.65;;;;;;;;;;12981892;19;19928;-64
2023/07/07 06:52:25;;;;;;;5.85;2.90;;;;;;;;;;12988818;19;20026;-64
2023/07/07 06:56:44;;;;;;;5.28;2.95;;;;;;;;;;12987584;19;20019;-64
2023/07/07 07:01:02;;;;;;;4.32;2.80;;;;;;;;;;12986875;19;20006;-65
2023/07/07 07:05:20;;;;;;;5.20;2.40;;;;;;;;;;12991050;19;20366;-66
2023/07/07 07:09:41;;;;;;;3.92;2.25;;;;;;;;;;12989909;19;20018;-65
2023/07/07 07:13:58;;;;;;;;;;;;;;;;;;12991658;19;20466;-65
2023/07/07 07:18:16;;;;;;;3.72;2.28;;;;;;;;;;12992715;19;20311;-65
2023/07/07 07:22:34;;;;;;;1.77;1.20;;;;;;;;;;12993441;19;20006;-65
2023/07/07 07:26:51;;;;;;;1.80;1.20;;;;;;;;;;12991438;19;20481;-65
2023/07/07 07:31:09;;;;;;;1.63;1.08;;;;;;;;;;12988932;19;20010;-64
2023/07/07 07:35:27;;;;;;;1.55;1.10;;;;;;;;;;12990745;19;20469;-65
2023/07/07 07:39:45;;;;;;;2.05;1.10;;;;;;;;;;12991080;19;20021;-64
2023/07/07 07:44:03;;;;;;;1.88;1.05;;;;;;;;;;12989642;19;20033;-65
2023/07/07 07:48:21;;;;;;;2.22;1.10;;;;;;;;;;12989056;19;20011;-65
2023/07/07 07:52:39;;;;;;;3.17;1.27;;;;;;;;;;12989353;19;20018;-65
2023/07/07 07:56:59;;;;;;;1.95;1.10;;;;;;;;;;12987615;19;20010;-66
2023/07/07 08:01:16;;;;;;;3.72;1.35;;;;;;;;;;12986937;19;20015;-64
2023/07/07 08:05:34;;;;;;;3.30;1.58;;;;;;;;;;12989081;19;20335;-65
2023/07/07 08:09:52;;;;;;;2.60;0.95;;;;;;;;;;12989192;19;20315;-65
2023/07/07 08:14:23;;;;;;;1.75;0.90;;;;;;;;;;12988553;19;20018;-65
2023/07/07 08:18:41;;;;;;;2.72;1.25;;;;;;;;;;12989349;19;20367;-64
2023/07/07 08:22:59;;;;;;;2.92;0.90;;;;;;;;;;12989095;19;20033;-65
2023/07/07 08:27:20;;;;;;;2.03;1.17;;;;;;;;;;12985133;19;20018;-65
2023/07/07 08:31:40;;;;;;;1.70;1.15;;;;;;;;;;12987876;19;20029;-64
2023/07/07 08:35:58;;;;;;;2.38;1.50;;;;;;;;;;12987278;19;20015;-64
2023/07/07 08:40:22;;;;;;;1.05;0.77;;;;;;;;;;12987304;19;20369;-65
2023/07/07 08:44:41;;;;;;;1.50;1.02;;;;;;;;;;12987739;19;20025;-66
2023/07/07 08:49:09;;;;;;;3.28;1.27;;;;;;;;;;12984630;19;20023;-65
2023/07/07 08:53:46;;;;;;;1.20;1.00;;;;;;;;;;12985611;19;20042;-65
2023/07/07 08:58:27;;;;;;;1.90;0.80;;;;;;;;;;12984336;19;20480;-64
2023/07/07 09:03:11;;;;;;;1.27;0.80;;;;;;;;;;12985074;19;20015;-65
2023/07/07 09:07:40;;;;;;;1.50;1.00;;;;;;;;;;12986808;19;20018;-64
2023/07/07 09:12:07;;;;;;;2.13;1.10;;;;;;;;;;12982636;19;20014;-65
2023/07/07 09:16:34;;;;;;;;;;;;;;;;;;12983800;19;20022;-66
2023/07/07 09:21:00;;;;;;;2.58;1.38;;;;;;;;;;12985380;19;20270;-65
2023/07/07 09:25:29;;;;;;;2.25;1.10;;;;;;;;;;12983282;19;20011;-64
2023/07/07 09:30:34;;;;;;;2.47;1.20;;;;;;;;;;12985312;19;20710;-64
2023/07/07 09:34:52;;;;;;;1.67;1.10;;;;;;;;;;12984256;19;20019;-64
2023/07/07 09:39:26;;;;;;;;;;;;;;;;;;12983734;19;20340;-64
2023/07/07 09:43:55;;;;;;;3.70;1.45;;;;;;;;;;12983620;19;19960;-64
2023/07/07 09:48:29;;;;;;;1.73;0.93;;;;;;;;;;12981962;19;20010;-64
2023/07/07 09:52:54;;;;;;;2.40;1.33;;;;;;;;;;12984326;19;20019;-63
2023/07/07 09:57:36;;;;;;;1.50;0.95;;;;;;;;;;12983592;19;20018;-63
2023/07/07 10:01:55;;;;;;;1.95;0.88;;;;;;;;;;12983345;19;20530;-64
2023/07/07 10:06:36;;;;;;;6.75;1.08;;;;;;;;;;12982059;19;20006;-63
2023/07/07 10:11:23;;;;;;;1.10;0.90;;;;;;;;;;12981131;19;20037;-64
2023/07/07 10:16:05;;;;;;;1.38;0.90;;;;;;;;;;12982111;19;20032;-63
2023/07/07 10:20:23;;;;;;;1.58;0.70;;;;;;;;;;12982228;19;20015;-63
2023/07/07 10:24:42;;;;;;;1.40;0.77;;;;;;;;;;12980701;19;20006;-63
2023/07/07 10:29:04;;;;;;;2.25;1.00;;;;;;;;;;12980861;19;20014;-63
2023/07/07 10:33:22;;;;;;;2.05;1.00;;;;;;;;;;12981758;19;20014;-63
2023/07/07 10:37:40;;;;;;;;;;;;;;;;;;12982605;19;20018;-64
2023/07/07 10:41:58;;;;;;;3.17;1.00;;;;;;;;;;12981364;19;19929;-63
2023/07/07 10:46:15;;;;;;;;;;;;;;;;;;12979547;19;20571;-64
2023/07/07 10:50:49;;;;;;;12.45;2.00;;;;;;;;;;12980740;19;19918;-63
2023/07/07 10:56:05;;;;;;;1.05;0.73;;;;;;;;;;12979795;19;20042;-65
2023/07/07 11:00:45;;;;;;;1.88;1.08;;;;;;;;;;12977834;19;20469;-65
2023/07/07 11:05:28;;;;;;;1.15;0.82;;;;;;;;;;12979110;19;20014;-64
2023/07/07 11:10:04;;;;;;;1.65;1.08;;;;;;;;;;12979038;19;20014;-64
2023/07/07 11:14:39;;;;;;;3.83;0.93;;;;;;;;;;12977865;19;20500;-63
2023/07/07 11:19:35;;;;;;;2.95;0.80;;;;;;;;;;12979148;19;20010;-63
2023/07/07 11:24:18;;;;;;;4.95;1.20;;;;;;;;;;12977306;19;20011;-62
2023/07/07 11:29:22;;;;;;;1.40;0.98;;;;;;;;;;12978839;19;20015;-64
2023/07/07 11:34:00;;;;;;;2.67;0.90;;;;;;;;;;12979890;19;20018;-64
2023/07/07 11:38:42;;;;;;;4.07;0.90;;;;;;;;;;12989482;19;20014;-65
2023/07/07 11:43:26;;;;;;;1.10;0.82;;;;;;;;;;12989997;19;20006;-63
2023/07/07 11:48:18;;;;;;;3.53;0.90;;;;;;;;;;12988439;19;20607;-63
2023/07/07 11:53:07;;;;;;;3.53;1.30;;;;;;;;;;12989600;19;20022;-63
2023/07/07 11:57:48;;;;;;;1.13;0.70;;;;;;;;;;12989215;19;20010;-63
2023/07/07 12:02:31;;;;;;;2.50;0.80;;;;;;;;;;12989106;19;20461;-64
2023/07/07 12:06:53;;;;;;;1.48;0.80;;;;;;;;;;12987749;19;20521;-64
2023/07/07 12:11:14;;;;;;;4.03;0.68;;;;;;;;;;12987208;19;20014;-64
2023/07/07 12:15:39;;;;;;;1.98;0.82;;;;;;;;;;12989081;19;20034;-63
2023/07/07 12:20:04;;;;;;;1.60;0.80;;;;;;;;;;12988993;19;20544;-64
2023/07/07 12:24:33;;;;;;;0.93;0.70;;;;;;;;;;12987952;19;20406;-62
2023/07/07 12:28:56;;;;;;;1.00;0.70;;;;;;;;;;12985757;19;20512;-63
2023/07/07 12:33:16;;;;;;;2.38;0.90;;;;;;;;;;12987380;19;20516;-64
2023/07/07 12:37:36;;;;;;;3.38;0.85;;;;;;;;;;12986149;19;20078;-65
2023/07/07 12:41:53;;;;;;;1.67;0.80;;;;;;;;;;12985882;19;20010;-65
2023/07/07 12:46:32;;;;;;;3.45;0.77;;;;;;;;;;12984286;19;20026;-63
2023/07/07 12:50:50;;;;;;;1.17;0.70;;;;;;;;;;12986499;19;20034;-64
2023/07/07 12:55:56;;;;;;;1.33;0.77;;;;;;;;;;12984760;19;20015;-64
2023/07/07 13:00:33;;;;;;;3.03;0.63;;;;;;;;;;12986817;19;20018;-64
2023/07/07 13:04:57;;;;;;;1.60;0.90;;;;;;;;;;12985404;19;20011;-64
2023/07/07 13:09:16;;;;;;;1.38;0.80;;;;;;;;;;12985241;19;20011;-64
2023/07/07 13:13:38;;;;;;;3.13;0.77;;;;;;;;;;12985085;19;20014;-64
2023/07/07 13:17:57;;;;;;;1.27;0.90;;;;;;;;;;12985200;19;20014;-63
2023/07/07 13:22:28;;;;;;;2.35;0.80;;;;;;;;;;12983063;19;20020;-63
2023/07/07 13:26:46;;;;;;;1.67;0.90;;;;;;;;;;12984695;19;20022;-63
2023/07/07 13:31:04;;;;;;;3.28;1.08;;;;;;;;;;12983529;19;20011;-63
2023/07/07 13:35:25;;;;;;;2.30;0.95;;;;;;;;;;12985162;19;20037;-63
2023/07/07 13:39:44;;;;;;;1.02;0.70;;;;;;;;;;12982790;19;20026;-64
2023/07/07 13:44:01;;;;;;;0.95;0.57;;;;;;;;;;12983810;19;20015;-63
2023/07/07 13:48:23;;;;;;;2.03;1.25;;;;;;;;;;12983495;19;20323;-63
2023/07/07 13:52:53;;;;;;;3.72;1.02;;;;;;;;;;12983810;19;20019;-63
2023/07/07 13:57:11;;;;;;;2.85;1.02;;;;;;;;;;12980482;19;20010;-63
2023/07/07 14:01:38;;;;;;;1.27;0.75;;;;;;;;;;12983199;19;20023;-64
2023/07/07 14:06:10;;;;;;;1.73;1.00;;;;;;;;;;12982614;19;20014;-63
2023/07/07 14:10:34;;;;;;;1.95;1.10;;;;;;;;;;12981634;19;20484;-64
2023/07/07 14:14:58;;;;;;;1.08;0.77;;;;;;;;;;12981954;19;20011;-64
2023/07/07 14:19:30;;;;;;;1.73;0.93;;;;;;;;;;12980415;19;20025;-63
2023/07/07 14:23:50;;;;;;;4.90;0.80;;;;;;;;;;12979983;19;20014;-63
2023/07/07 14:28:36;;;;;;;1.20;0.68;;;;;;;;;;12978530;19;20022;-63
2023/07/07 14:32:55;;;;;;;;;;;;;;;;;;12981509;19;20022;-63
2023/07/07 14:37:21;;;;;;;1.63;0.80;;;;;;;;;;12978089;19;19938;-64
2023/07/07 14:41:40;;;;;;;1.10;0.80;;;;;;;;;;12981682;19;20041;-64
2023/07/07 14:46:06;;;;;;;3.70;1.10;;;;;;;;;;12979786;19;20011;-64
2023/07/07 14:50:30;;;;;;;2.80;0.80;;;;;;;;;;12975990;19;20138;-63
2023/07/07 14:54:49;;;;;;;1.55;0.85;;;;;;;;;;12979821;19;20019;-63
2023/07/07 14:59:20;;;;;;;2.92;1.30;;;;;;;;;;12978870;19;20019;-64
2023/07/07 15:03:39;;;;;;;2.53;1.13;;;;;;;;;;12979241;19;20006;-63
2023/07/07 15:08:06;;;;;;;1.88;0.90;;;;;;;;;;12981452;19;20458;-63
2023/07/07 15:12:28;;;;;;;1.60;1.02;;;;;;;;;;12991963;19;20034;-64
2023/07/07 15:16:47;;;;;;;1.70;1.15;;;;;;;;;;12990870;19;20116;-64
2023/07/07 15:21:08;;;;;;;1.48;0.93;;;;;;;;;;12990701;19;20014;-63
2023/07/07 15:25:25;;;;;;;1.67;1.00;;;;;;;;;;12991901;19;20010;-63
2023/07/07 15:29:43;;;;;;;1.25;1.00;;;;;;;;;;12990138;19;20054;-63
2023/07/07 15:34:01;;;;;;;3.45;1.00;;;;;;;;;;12991270;19;20018;-64
2023/07/07 15:38:43;;;;;;;1.88;0.95;;;;;;;;;;12990199;19;20050;-63
2023/07/07 15:43:01;;;;;;;2.92;1.00;;;;;;;;;;12990699;19;20010;-63
2023/07/07 15:47:22;;;;;;;1.98;0.90;;;;;;;;;;12988651;19;20017;-64
2023/07/07 15:51:43;;;;;;;1.13;0.90;;;;;;;;;;12989745;19;20029;-63
2023/07/07 15:56:01;;;;;;;1.67;1.08;;;;;;;;;;12988848;19;20046;-64
2023/07/07 16:00:33;;;;;;;2.25;1.02;;;;;;;;;;12989210;19;20505;-63
2023/07/07 16:04:51;;;;;;;2.00;1.60;;;;;;;;;;12988939;19;20488;-63
2023/07/07 16:09:15;;;;;;;1.30;0.80;;;;;;;;;;12987432;19;20010;-64
2023/07/07 16:13:33;;;;;;;2.00;1.05;;;;;;;;;;12989245;19;20006;-63
2023/07/07 16:17:51;;;;;;;2.38;1.40;;;;;;;;;;12989342;19;20018;-64
2023/07/07 16:22:15;;;;;;;6.32;1.20;;;;;;;;;;12986761;19;20348;-64
2023/07/07 16:26:37;;;;;;;1.33;0.88;;;;;;;;;;12988864;19;20467;-63
2023/07/07 16:30:54;;;;;;;1.40;0.73;;;;;;;;;;12987577;19;20007;-64
2023/07/07 16:35:14;;;;;;;3.08;0.93;;;;;;;;;;12987076;19;20025;-63
2023/07/07 16:39:31;;;;;;;1.75;1.10;;;;;;;;;;12987057;19;20002;-63
2023/07/07 16:43:56;;;;;;;2.03;1.15;;;;;;;;;;12987539;19;20479;-63
2023/07/07 16:48:15;;;;;;;2.95;1.08;;;;;;;;;;12984989;19;20014;-64
2023/07/07 16:52:33;;;;;;;3.97;0.98;;;;;;;;;;12985083;19;20342;-63
2023/07/07 16:56:51;;;;;;;1.90;1.27;;;;;;;;;;12986281;19;20010;-63
2023/07/07 17:01:13;;;;;;;1.10;0.60;;;;;;;;;;12985882;19;20138;-64
2023/07/07 17:05:32;;;;;;;2.00;0.77;;;;;;;;;;12986733;19;20374;-63
2023/07/07 17:09:50;;;;;;;4.40;1.50;;;;;;;;;;12985410;19;20343;-64
2023/07/07 17:14:08;;;;;;;1.10;0.90;;;;;;;;;;12984656;19;20010;-64
2023/07/07 17:18:29;;;;;;;1.55;0.95;;;;;;;;;;12940618;19;20033;-64
2023/07/07 17:22:58;;;;;;;1.05;0.70;;;;;;;;;;12942508;19;20011;-64
2023/07/07 17:27:24;;;;;;;1.60;1.00;;;;;;;;;;12962916;19;20085;-64
2023/07/07 17:31:43;;;;;;;1.83;1.20;;;;;;;;;;12981203;19;20010;-63
2023/07/07 17:36:09;;;;;;;2.33;1.15;;;;;;;;;;12980052;19;20007;-63
2023/07/07 17:40:38;;;;;;;4.93;1.80;;;;;;;;;;12983937;19;20322;-63
2023/07/07 17:44:56;;;;;;;4.20;1.48;;;;;;;;;;12985412;19;20015;-63
2023/07/07 17:49:16;;;;;;;;;;;;;;;;;;12982013;19;20041;-64
2023/07/07 17:53:34;;;;;;;1.55;1.00;;;;;;;;;;12984034;19;19918;-63
2023/07/07 17:57:52;;;;;;;1.55;1.17;;;;;;;;;;12983922;19;20501;-63
2023/07/07 18:02:10;;;;;;;3.67;1.35;;;;;;;;;;12982308;19;20493;-63
2023/07/07 18:06:28;;;;;;;3.58;1.42;;;;;;;;;;12981833;19;20013;-63
2023/07/07 18:10:46;;;;;;;1.65;1.10;;;;;;;;;;12983138;19;20477;-64
2023/07/07 18:15:05;;;;;;;2.53;1.20;;;;;;;;;;12982536;19;20022;-63
2023/07/07 18:19:23;;;;;;;2.00;1.00;;;;;;;;;;12982546;19;20033;-63
2023/07/07 18:24:01;;;;;;;5.85;1.58;;;;;;;;;;12982559;19;20304;-63
2023/07/07 18:28:19;;;;;;;5.32;2.53;;;;;;;;;;12981156;19;20014;-65
2023/07/07 18:32:36;;;;;;;4.82;1.60;;;;;;;;;;12980887;19;20021;-63
2023/07/07 18:36:54;;;;;;;;;;;;;;;;;;12980971;19;20010;-62
2023/07/07 18:41:16;;;;;;;;;;;;;;;;;;12981144;19;19922;-63
2023/07/07 18:45:37;;;;;;;5.60;2.08;;;;;;;;;;13002576;19;19941;-63
2023/07/07 18:49:55;;;;;;;9.05;1.92;;;;;;;;;;13004905;19;20042;-63
2023/07/07 18:54:16;;;;;;;6.90;1.92;;;;;;;;;;13004415;19;20014;-63
2023/07/07 18:58:33;;;;;;;5.15;2.30;;;;;;;;;;13005377;19;20014;-63
2023/07/07 19:02:51;;;;;;;5.40;2.00;;;;;;;;;;13004773;19;20011;-64
2023/07/07 19:07:09;;;;;;;6.72;2.30;;;;;;;;;;13004426;19;20010;-64
2023/07/07 19:11:28;;;;;;;8.48;2.00;;;;;;;;;;13005052;19;20022;-64
2023/07/07 19:15:50;;;;;;;4.70;2.20;;;;;;;;;;13004988;19;20443;-64
2023/07/07 19:20:14;;;;;;;7.15;2.35;;;;;;;;;;13004238;19;20022;-65
2023/07/07 19:24:31;;;;;;;3.78;1.40;;;;;;;;;;13003552;19;20006;-64
2023/07/07 19:28:50;;;;;;;3.92;1.92;;;;;;;;;;13000964;19;20022;-63
2023/07/07 19:33:18;;;;;;;7.45;2.03;;;;;;;;;;13000143;19;20021;-64
2023/07/07 19:37:36;;;;;;;6.47;2.22;;;;;;;;;;13001517;19;20021;-64
2023/07/07 19:41:53;;;;;;;7.82;3.05;;;;;;;;;;13003113;19;20006;-63
2023/07/07 19:46:23;;;;;;;4.45;2.80;;;;;;;;;;13000383;19;20046;-63
2023/07/07 19:50:41;;;;;;;5.93;2.20;;;;;;;;;;13001061;19;20010;-64
2023/07/07 19:54:59;;;;;;;2.28;1.70;;;;;;;;;;12993426;19;20018;-63
2023/07/07 19:59:19;;;;;;;;;;;;;;;;;;12989867;19;20014;-62
2023/07/07 20:03:39;;;;;;;5.75;2.08;;;;;;;;;;12989751;19;20259;-63
2023/07/07 20:07:57;;;;;;;5.85;2.70;;;;;;;;;;12988662;19;21115;-62
2023/07/07 20:12:16;;;;;;;5.57;3.45;;;;;;;;;;12987657;19;20014;-62
2023/07/07 20:16:44;;;;;;;4.88;2.78;;;;;;;;;;12988710;19;20030;-62
2023/07/07 20:21:01;;;;;;;7.17;2.67;;;;;;;;;;12988274;19;20465;-62
2023/07/07 20:25:19;;;;;;;7.30;3.63;;;;;;;;;;12988139;19;20018;-63
2023/07/07 20:29:37;;;;;;;;;;;;;;;;;;12987736;19;20025;-63
2023/07/07 20:33:55;;;;;;;11.35;3.88;;;;;;;;;;12987562;19;19918;-64
2023/07/07 20:38:14;;;;;;;;;;;;;;;;;;12987220;19;20010;-63
2023/07/07 20:42:33;;;;;;;5.78;2.72;;;;;;;;;;12987799;19;19922;-64
2023/07/07 20:46:51;;;;;;;;;;;;;;;;;;12987496;19;20014;-63
2023/07/07 20:51:11;;;;;;;7.40;3.08;;;;;;;;;;12986131;19;19954;-63
2023/07/07 20:55:29;;;;;;;11.07;3.10;;;;;;;;;;12987125;19;20602;-63
2023/07/07 20:59:47;;;;;;;13.38;4.38;;;;;;;;;;12986610;19;20014;-64
2023/07/07 21:04:07;;;;;;;10.82;3.70;;;;;;;;;;12984934;19;20018;-64
2023/07/07 21:08:25;;;;;;;7.50;3.35;;;;;;;;;;12985906;19;20102;-64
2023/07/07 21:12:44;;;;;;;7.03;2.63;;;;;;;;;;12985478;19;20403;-63
2023/07/07 21:17:02;;;;;;;4.28;2.40;;;;;;;;;;12983561;19;20029;-64
2023/07/07 21:21:24;;;;;;;7.53;3.17;;;;;;;;;;12983468;19;20615;-64
2023/07/07 21:25:56;;;;;;;6.47;2.83;;;;;;;;;;12984925;19;20010;-63
2023/07/07 21:30:19;;;;;;;4.15;2.50;;;;;;;;;;12983541;19;20022;-64
2023/07/07 21:34:36;;;;;;;6.30;3.22;;;;;;;;;;12984134;19;20042;-63
2023/07/07 21:39:13;;;;;;;7.85;3.67;;;;;;;;;;12984332;19;20010;-63
2023/07/07 21:43:30;;;;;;;6.57;3.00;;;;;;;;;;12981736;19;20026;-63
2023/07/07 21:48:03;;;;;;;;;;;;;;;;;;12983877;19;20011;-63
2023/07/07 21:52:21;;;;;;;3.35;2.50;;;;;;;;;;12983437;19;21010;-63
2023/07/07 21:56:40;;;;;;;4.70;2.50;;;;;;;;;;12983707;19;20030;-64
2023/07/07 22:00:58;;;;;;;4.95;2.33;;;;;;;;;;12982349;19;20018;-63
2023/07/07 22:05:19;;;;;;;2.25;1.55;;;;;;;;;;12983139;19;20007;-63
2023/07/07 22:09:36;;;;;;;3.92;2.20;;;;;;;;;;12983456;19;20018;-62
2023/07/07 22:13:54;;;;;;;;;;;;;;;;;;12983416;19;20014;-62
2023/07/07 22:18:16;;;;;;;4.18;2.33;;;;;;;;;;12980024;19;20329;-64
2023/07/07 22:22:34;;;;;;;3.58;2.17;;;;;;;;;;12981526;19;20019;-65
2023/07/07 22:26:53;;;;;;;5.35;2.15;;;;;;;;;;12982023;19;20045;-63
2023/07/07 22:31:14;;;;;;;3.53;2.33;;;;;;;;;;12980595;19;20024;-64
2023/07/07 22:35:32;;;;;;;3.88;2.35;;;;;;;;;;12981594;19;20018;-63
2023/07/07 22:39:50;;;;;;;6.65;2.05;;;;;;;;;;12981430;19;20011;-63
2023/07/07 22:44:08;;;;;;;2.40;1.67;;;;;;;;;;12977295;19;20015;-64
2023/07/07 22:48:26;;;;;;;2.20;1.70;;;;;;;;;;12981168;19;20006;-65
2023/07/07 22:52:47;;;;;;;2.80;2.03;;;;;;;;;;12980777;19;20021;-63
2023/07/07 22:57:05;;;;;;;8.82;2.45;;;;;;;;;;12978206;19;20011;-64
2023/07/07 23:01:24;;;;;;;;;;;;;;;;;;12981146;19;20134;-64
2023/07/07 23:05:44;;;;;;;3.33;2.13;;;;;;;;;;12980064;19;19922;-62
2023/07/07 23:10:02;;;;;;;5.90;2.45;;;;;;;;;;12979577;19;20303;-62
2023/07/07 23:14:20;;;;;;;2.75;2.17;;;;;;;;;;12978830;19;20014;-62
2023/07/07 23:18:41;;;;;;;2.45;1.90;;;;;;;;;;12979061;19;20354;-62
2023/07/07 23:22:59;;;;;;;2.30;1.60;;;;;;;;;;12979159;19;20025;-62
2023/07/07 23:27:16;;;;;;;3.45;1.70;;;;;;;;;;12977045;19;20022;-63
2023/07/07 23:31:35;;;;;;;2.10;1.58;;;;;;;;;;12987381;19;20011;-64
2023/07/07 23:35:54;;;;;;;7.35;1.70;;;;;;;;;;12991191;19;20142;-63
2023/07/07 23:40:24;;;;;;;3.22;1.90;;;;;;;;;;12988783;19;20037;-63
2023/07/07 23:44:42;;;;;;;4.57;2.17;;;;;;;;;;12990463;19;20042;-63
2023/07/07 23:49:00;;;;;;;2.38;1.50;;;;;;;;;;12989159;19;20013;-63
2023/07/07 23:53:21;;;;;;;2.45;1.67;;;;;;;;;;12989697;19;20025;-65
2023/07/07 23:57:39;;;;;;;1.92;1.52;;;;;;;;;;12989887;19;20015;-63
